Time;durP1;ratioP1;P1;durP2;ratioP2;P2;SDS_P1;SDS_P2;PMS_P1;PMS_P2;Temp;Humidity;BMP_temperature;BMP_pressure;BME280_temperature;BME280_humidity;BME280_pressure;Samples;Min_cycle;Max_cycle;Signal;HPM_P1;HPM_P2
2024/04/17 00:00:59;;;;;;;4.60;4.40;;;7.40;99.90;;;;;;5210786;27;20242;-82
2024/04/17 00:03:27;;;;;;;4.87;4.67;;;7.40;99.90;;;;;;5247050;27;20276;-83
2024/04/17 00:05:56;;;;;;;4.80;4.60;;;7.50;99.90;;;;;;5236388;27;20250;-82
2024/04/17 00:08:24;;;;;;;4.67;4.47;;;7.40;99.90;;;;;;5216941;27;20579;-82
2024/04/17 00:10:50;;;;;;;1.80;1.80;;;7.40;99.90;;;;;;5237699;27;20364;-82
2024/04/17 00:13:18;;;;;;;2.00;1.90;;;7.40;99.90;;;;;;5236610;27;20250;-83
2024/04/17 00:15:44;;;;;;;1.87;1.80;;;7.40;99.90;;;;;;5238801;27;20242;-82
2024/04/17 00:18:13;;;;;;;1.80;1.70;;;7.40;99.90;;;;;;5235937;27;20247;-82
2024/04/17 00:20:39;;;;;;;2.10;2.00;;;7.40;99.90;;;;;;5239630;27;20246;-82
2024/04/17 00:23:10;;;;;;;2.10;2.00;;;7.40;99.90;;;;;;5207701;27;20291;-82
2024/04/17 00:25:36;;;;;;;2.20;1.90;;;7.40;99.90;;;;;;5214415;27;20246;-82
2024/04/17 00:28:04;;;;;;;2.40;2.30;;;7.40;99.90;;;;;;5247562;27;20788;-82
2024/04/17 00:30:30;;;;;;;4.73;4.53;;;7.30;99.90;;;;;;5211451;27;20242;-82
2024/04/17 00:32:58;;;;;;;5.37;5.07;;;7.30;99.90;;;;;;5222104;27;20245;-82
2024/04/17 00:35:24;;;;;;;5.40;5.10;;;7.30;99.90;;;;;;5210167;27;20285;-82
2024/04/17 00:37:52;;;;;;;4.97;4.67;;;7.30;99.90;;;;;;5218095;27;20798;-82
2024/04/17 00:40:21;;;;;;;5.00;4.70;;;7.30;99.90;;;;;;5210324;27;20800;-82
2024/04/17 00:42:49;;;;;;;5.13;4.83;;;7.30;99.90;;;;;;5223776;27;20626;-82
2024/04/17 00:45:16;;;;;;;5.20;4.90;;;7.30;99.90;;;;;;5243970;27;20247;-82
2024/04/17 00:47:45;;;;;;;4.97;4.70;;;7.30;99.90;;;;;;5247268;27;20801;-82
2024/04/17 00:50:12;;;;;;;5.20;4.90;;;7.30;99.90;;;;;;5237421;27;20730;-82
2024/04/17 00:52:41;;;;;;;4.90;4.60;;;7.30;99.90;;;;;;5219072;27;20251;-82
2024/04/17 00:55:07;;;;;;;5.00;4.70;;;7.20;99.90;;;;;;5227126;27;20290;-82
2024/04/17 00:57:40;;;;;;;5.10;4.80;;;7.30;99.90;;;;;;5218937;27;20243;-82
2024/04/17 01:00:07;;;;;;;5.10;4.80;;;7.30;99.90;;;;;;5237102;27;20367;-83
2024/04/17 01:02:35;;;;;;;5.20;4.90;;;7.30;99.90;;;;;;5237700;27;20595;-82
2024/04/17 01:05:01;;;;;;;5.00;4.80;;;7.30;99.90;;;;;;5249816;27;20340;-81
2024/04/17 01:07:30;;;;;;;5.10;4.80;;;7.30;99.90;;;;;;5242319;27;20306;-82
2024/04/17 01:09:55;;;;;;;5.10;4.70;;;7.30;99.90;;;;;;5246353;27;20590;-82
2024/04/17 01:12:24;;;;;;;5.33;4.93;;;7.30;99.90;;;;;;5209916;27;20306;-83
2024/04/17 01:14:52;;;;;;;5.30;5.00;;;7.30;99.90;;;;;;5237222;27;20281;-81
2024/04/17 01:17:22;;;;;;;5.40;5.10;;;7.30;99.90;;;;;;5199726;27;20289;-82
2024/04/17 01:19:48;;;;;;;5.30;5.00;;;7.30;99.90;;;;;;5217431;27;20239;-82
2024/04/17 01:22:16;;;;;;;5.17;4.97;;;7.30;99.90;;;;;;5222126;27;20603;-82
2024/04/17 01:24:45;;;;;;;5.50;5.20;;;7.30;99.90;;;;;;5211585;27;20238;-82
2024/04/17 01:27:13;;;;;;;5.30;5.00;;;7.30;99.90;;;;;;5206604;27;20242;-82
2024/04/17 01:29:39;;;;;;;5.33;5.03;;;7.30;99.90;;;;;;5241525;27;20374;-82
2024/04/17 01:32:08;;;;;;;5.47;5.17;;;7.30;99.90;;;;;;5238663;27;20255;-83
2024/04/17 01:34:34;;;;;;;5.60;5.30;;;7.30;99.90;;;;;;5222226;27;20235;-84
2024/04/17 01:37:02;;;;;;;5.40;5.10;;;7.20;99.90;;;;;;5211172;27;20286;-82
2024/04/17 01:39:28;;;;;;;5.23;4.93;;;7.20;99.90;;;;;;5220887;27;20297;-84
2024/04/17 01:41:59;;;;;;;5.70;5.20;;;7.20;99.90;;;;;;5216990;27;20239;-82
2024/04/17 01:44:25;;;;;;;5.00;4.80;;;7.20;99.90;;;;;;5228295;27;20247;-83
2024/04/17 01:46:53;;;;;;;5.23;4.93;;;7.20;99.90;;;;;;5211833;27;20305;-82
2024/04/17 01:53:09;;;;;;;5.60;5.30;;;7.20;99.90;;;;;;5205531;27;20317;-84
2024/04/17 01:55:35;;;;;;;5.50;5.20;;;7.10;99.90;;;;;;5219976;27;20749;-82
2024/04/17 01:58:06;;;;;;;5.40;5.10;;;7.10;99.90;;;;;;5215187;27;20277;-84
2024/04/17 02:00:34;;;;;;;6.27;5.87;;;7.10;99.90;;;;;;5245055;27;20242;-82
2024/04/17 02:03:03;;;;;;;5.27;4.97;;;7.00;99.90;;;;;;5223346;27;20353;-83
2024/04/17 02:05:29;;;;;;;5.80;5.50;;;7.00;99.90;;;;;;5210042;27;20285;-86
2024/04/17 02:07:57;;;;;;;5.50;5.20;;;7.10;99.90;;;;;;5235465;27;20656;-82
2024/04/17 02:10:23;;;;;;;5.80;5.50;;;7.00;99.90;;;;;;5228726;27;20289;-82
2024/04/17 02:12:51;;;;;;;5.63;5.30;;;7.00;99.90;;;;;;5232707;27;20283;-82
2024/04/17 02:15:20;;;;;;;5.60;5.20;;;7.00;99.90;;;;;;5210618;27;20788;-84
2024/04/17 02:17:48;;;;;;;5.63;5.33;;;7.00;99.90;;;;;;5218366;27;20620;-82
2024/04/17 02:20:14;;;;;;;5.70;5.40;;;7.00;99.90;;;;;;5210667;27;20251;-84
2024/04/17 02:22:43;;;;;;;5.73;5.33;;;7.00;99.90;;;;;;5217384;27;20243;-82
2024/04/17 02:25:08;;;;;;;5.40;5.10;;;7.00;99.90;;;;;;5237096;27;20245;-84
2024/04/17 02:27:37;;;;;;;5.20;4.90;;;7.00;99.90;;;;;;5235369;27;20322;-82
2024/04/17 02:30:03;;;;;;;5.33;5.03;;;7.00;99.90;;;;;;5207561;27;20239;-82
2024/04/17 02:32:34;;;;;;;5.63;5.17;;;7.00;99.90;;;;;;5210312;27;20847;-82
2024/04/17 02:35:00;;;;;;;5.47;5.17;;;7.00;99.90;;;;;;5244085;27;20243;-82
2024/04/17 02:37:29;;;;;;;5.00;4.80;;;7.00;99.90;;;;;;5249597;27;20281;-83
2024/04/17 02:39:54;;;;;;;5.37;5.07;;;7.00;99.90;;;;;;5216782;27;20243;-82
2024/04/17 02:42:23;;;;;;;5.43;5.03;;;7.00;99.90;;;;;;5248113;27;20286;-78
2024/04/17 02:44:49;;;;;;;5.20;4.90;;;7.00;99.90;;;;;;5215626;27;20749;-83
2024/04/17 02:47:17;;;;;;;5.17;4.87;;;7.00;99.90;;;;;;5240245;27;20253;-83
2024/04/17 02:49:46;;;;;;;5.20;4.90;;;7.00;99.90;;;;;;5221756;27;20235;-81
2024/04/17 02:52:14;;;;;;;5.37;5.07;;;7.00;99.90;;;;;;5211886;27;20310;-82
2024/04/17 02:54:40;;;;;;;4.80;4.60;;;7.00;99.90;;;;;;5264649;27;20277;-85
2024/04/17 02:57:09;;;;;;;5.00;4.70;;;7.00;99.90;;;;;;5206931;27;20255;-84
2024/04/17 02:59:35;;;;;;;4.93;4.63;;;6.90;99.90;;;;;;5230414;27;20242;-84
2024/04/17 03:02:03;;;;;;;5.00;4.80;;;6.90;99.90;;;;;;5202567;27;20787;-83
2024/04/17 03:04:29;;;;;;;4.90;4.70;;;6.90;99.90;;;;;;5217731;27;20305;-84
2024/04/17 03:07:00;;;;;;;5.00;4.80;;;6.90;99.90;;;;;;5252189;27;20451;-83
2024/04/17 03:09:27;;;;;;;4.70;4.50;;;6.90;99.90;;;;;;5231307;27;20600;-84
2024/04/17 03:11:55;;;;;;;4.70;4.40;;;6.80;99.90;;;;;;5235992;27;20297;-84
2024/04/17 03:14:21;;;;;;;4.60;4.40;;;6.80;99.90;;;;;;5235933;27;20282;-86
2024/04/17 03:16:50;;;;;;;4.70;4.50;;;6.80;99.90;;;;;;5245292;27;20296;-85
2024/04/17 03:19:15;;;;;;;4.70;4.50;;;6.80;99.90;;;;;;5210920;27;20305;-83
2024/04/17 03:21:44;;;;;;;4.80;4.60;;;6.70;99.90;;;;;;5220750;27;20604;-84
2024/04/17 03:24:12;;;;;;;4.67;4.47;;;6.70;99.90;;;;;;5245389;27;20379;-84
2024/04/17 03:26:41;;;;;;;5.00;4.70;;;6.70;99.90;;;;;;5234609;27;20296;-86
2024/04/17 03:29:07;;;;;;;4.97;4.70;;;6.70;99.90;;;;;;5236044;27;20247;-86
2024/04/17 03:31:35;;;;;;;4.80;4.60;;;6.70;99.90;;;;;;5215448;27;20666;-84
2024/04/17 03:34:01;;;;;;;4.83;4.63;;;6.70;99.90;;;;;;5209571;27;20239;-83
2024/04/17 03:36:30;;;;;;;4.87;4.67;;;6.70;99.90;;;;;;5239428;27;20295;-84
2024/04/17 03:38:58;;;;;;;5.00;4.80;;;6.70;99.90;;;;;;5247467;27;20358;-83
2024/04/17 03:41:30;;;;;;;5.00;4.80;;;6.70;99.90;;;;;;5235468;27;20314;-84
2024/04/17 03:43:58;;;;;;;5.27;4.97;;;6.70;99.90;;;;;;5220629;27;20296;-84
2024/04/17 03:46:26;;;;;;;5.47;5.27;;;6.70;99.90;;;;;;5234727;27;20312;-85
2024/04/17 03:48:55;;;;;;;5.87;5.50;;;6.70;99.90;;;;;;5218899;27;20296;-85
2024/04/17 03:51:21;;;;;;;5.47;5.17;;;6.70;99.90;;;;;;5235388;27;20247;-82
2024/04/17 03:53:50;;;;;;;5.20;5.00;;;6.70;99.90;;;;;;5229797;27;20254;-82
2024/04/17 03:56:16;;;;;;;5.43;5.13;;;6.60;99.90;;;;;;5222780;27;20748;-83
2024/04/17 03:58:57;;;;;;;5.60;5.30;;;6.70;99.90;;;;;;5215985;27;20288;-83
2024/04/17 04:01:23;;;;;;;6.23;5.83;;;6.70;99.90;;;;;;5205476;27;20238;-84
2024/04/17 04:03:51;;;;;;;5.77;5.47;;;6.70;99.90;;;;;;5209170;27;20285;-83
2024/04/17 04:06:17;;;;;;;5.70;5.40;;;6.70;99.90;;;;;;5208909;27;20383;-83
2024/04/17 04:08:45;;;;;;;5.77;5.47;;;6.70;99.90;;;;;;5208304;27;20260;-82
2024/04/17 04:11:11;;;;;;;5.80;5.40;;;6.70;99.90;;;;;;5241811;27;20248;-83
2024/04/17 04:13:39;;;;;;;5.60;5.30;;;6.70;99.90;;;;;;5245091;27;20286;-83
2024/04/17 04:16:08;;;;;;;5.73;5.43;;;6.70;99.90;;;;;;5238930;27;20730;-82
2024/04/17 04:18:37;;;;;;;5.50;5.20;;;6.60;99.90;;;;;;5237855;27;20251;-83
2024/04/17 04:21:05;;;;;;;6.03;5.57;;;6.60;99.90;;;;;;5226495;27;20288;-82
2024/04/17 04:23:31;;;;;;;5.60;5.30;;;6.60;99.90;;;;;;5238267;27;20242;-83
2024/04/17 04:25:59;;;;;;;6.17;5.87;;;6.60;99.90;;;;;;5222912;27;20246;-85
2024/04/17 04:28:25;;;;;;;5.60;5.30;;;6.60;99.90;;;;;;5243011;27;20583;-84
2024/04/17 04:30:55;;;;;;;5.80;5.50;;;6.50;99.90;;;;;;5246819;27;20805;-84
2024/04/17 04:33:23;;;;;;;5.70;5.40;;;6.50;99.90;;;;;;5233210;27;20278;-84
2024/04/17 04:38:23;;;;;;;6.03;5.70;;;6.40;99.90;;;;;;5242612;27;20238;-78
2024/04/17 04:40:49;;;;;;;6.00;5.70;;;6.40;99.90;;;;;;5247268;27;20237;-79
2024/04/17 04:43:17;;;;;;;5.63;5.37;;;6.40;99.90;;;;;;5246973;27;20241;-80
2024/04/17 04:45:43;;;;;;;5.93;5.63;;;6.40;99.90;;;;;;5239608;27;20273;-79
2024/04/17 04:48:12;;;;;;;6.40;6.00;;;6.40;99.90;;;;;;5234879;27;20671;-78
2024/04/17 04:50:43;;;;;;;6.17;5.77;;;6.50;99.90;;;;;;5225003;27;20268;-79
2024/04/17 04:53:08;;;;;;;6.73;6.13;;;6.50;99.90;;;;;;5226109;27;20242;-79
2024/04/17 04:55:37;;;;;;;6.67;6.27;;;6.40;99.90;;;;;;5233150;27;20292;-79
2024/04/17 04:58:03;;;;;;;6.10;5.70;;;6.20;99.90;;;;;;5239725;27;20242;-78
2024/04/17 05:00:31;;;;;;;6.37;5.97;;;6.10;99.90;;;;;;5249789;27;20249;-78
2024/04/17 05:02:57;;;;;;;6.53;6.20;;;6.00;99.90;;;;;;5240241;27;20762;-78
2024/04/17 05:05:26;;;;;;;7.47;7.07;;;5.80;99.90;;;;;;5233660;27;20248;-78
2024/04/17 05:07:54;;;;;;;7.40;6.90;;;5.70;99.90;;;;;;5235780;27;20786;-78
2024/04/17 05:10:22;;;;;;;7.57;7.03;;;5.70;99.90;;;;;;5235329;27;20312;-78
2024/04/17 05:12:48;;;;;;;7.37;6.97;;;5.60;99.90;;;;;;5236209;27;20747;-78
2024/04/17 05:15:17;;;;;;;7.90;7.30;;;5.60;99.90;;;;;;5230826;27;20283;-79
2024/04/17 05:17:42;;;;;;;8.20;7.70;;;5.50;99.90;;;;;;5237144;27;20295;-78
2024/04/17 05:20:11;;;;;;;7.90;7.50;;;5.50;99.90;;;;;;5227267;27;20243;-78
2024/04/17 05:22:37;;;;;;;8.30;7.80;;;5.50;99.90;;;;;;5254484;27;20250;-79
2024/04/17 05:25:09;;;;;;;9.00;8.40;;;5.60;99.90;;;;;;5227445;27;20244;-77
2024/04/17 05:27:34;;;;;;;8.40;8.00;;;5.50;99.90;;;;;;5230647;27;20242;-76
2024/04/17 05:30:03;;;;;;;8.97;8.50;;;5.40;99.90;;;;;;5266733;27;20306;-78
2024/04/17 05:32:29;;;;;;;8.87;8.37;;;5.40;99.90;;;;;;5241504;27;20249;-78
2024/04/17 05:34:57;;;;;;;8.77;8.27;;;5.40;99.90;;;;;;5238486;27;20290;-78
2024/04/17 05:37:23;;;;;;;9.20;8.70;;;5.40;99.90;;;;;;5230794;27;20246;-78
2024/04/17 05:39:51;;;;;;;9.30;8.70;;;5.40;99.90;;;;;;5238313;27;20349;-78
2024/04/17 05:42:20;;;;;;;9.00;8.50;;;5.30;99.90;;;;;;5231359;27;20295;-78
2024/04/17 05:44:48;;;;;;;8.93;8.43;;;5.30;99.90;;;;;;5245192;27;20286;-78
2024/04/17 05:47:14;;;;;;;9.20;8.70;;;5.40;99.90;;;;;;5214862;27;20248;-78
2024/04/17 05:49:43;;;;;;;9.00;8.50;;;5.40;99.90;;;;;;5247169;27;20291;-78
2024/04/17 05:52:10;;;;;;;9.20;8.70;;;5.40;99.90;;;;;;5237033;27;20242;-78
2024/04/17 05:54:38;;;;;;;9.20;8.60;;;5.40;99.90;;;;;;5234768;27;20735;-78
2024/04/17 05:57:04;;;;;;;9.40;8.90;;;5.50;99.90;;;;;;5256312;27;20299;-78
2024/04/17 05:59:36;;;;;;;8.87;8.40;;;5.60;99.90;;;;;;5259011;27;20260;-78
2024/04/17 06:02:02;;;;;;;9.30;8.70;;;5.50;99.90;;;;;;5265592;27;20256;-78
2024/04/17 06:04:30;;;;;;;8.90;8.40;;;5.60;99.90;;;;;;5247238;27;20287;-77
2024/04/17 06:06:56;;;;;;;9.27;8.57;;;5.60;99.90;;;;;;5223472;27;20298;-79
2024/04/17 06:09:26;;;;;;;9.53;8.83;;;5.60;99.90;;;;;;5248370;27;20250;-78
2024/04/17 06:11:52;;;;;;;9.20;8.70;;;5.60;99.90;;;;;;5247422;27;20251;-79
2024/04/17 06:14:20;;;;;;;9.53;8.90;;;5.60;99.90;;;;;;5233304;27;20295;-77
2024/04/17 06:16:49;;;;;;;9.57;9.07;;;5.60;99.90;;;;;;5240314;27;20249;-79
2024/04/17 06:19:17;;;;;;;9.57;9.07;;;5.60;99.90;;;;;;5236511;27;20249;-78
2024/04/17 06:21:43;;;;;;;9.60;8.93;;;5.80;99.90;;;;;;5233517;27;20267;-78
2024/04/17 06:24:12;;;;;;;9.10;8.60;;;5.90;99.90;;;;;;5226609;27;20245;-77
2024/04/17 06:26:37;;;;;;;9.13;8.63;;;5.90;99.90;;;;;;5229027;27;20654;-78
2024/04/17 06:29:06;;;;;;;9.30;8.70;;;6.00;99.90;;;;;;5224383;27;20334;-78
2024/04/17 06:31:32;;;;;;;9.07;8.57;;;6.00;99.90;;;;;;5228037;27;20296;-77
2024/04/17 06:34:03;;;;;;;6.90;6.50;;;6.10;99.90;;;;;;5238421;27;20745;-77
2024/04/17 06:36:32;;;;;;;7.30;6.90;;;6.10;99.90;;;;;;5233369;27;20284;-77
2024/04/17 06:38:58;;;;;;;6.77;6.37;;;6.20;99.90;;;;;;5238257;27;20641;-78
2024/04/17 06:41:26;;;;;;;6.70;6.30;;;6.20;99.90;;;;;;5258000;27;20247;-77
2024/04/17 06:43:52;;;;;;;7.03;6.63;;;6.40;99.90;;;;;;5258563;27;20278;-79
2024/04/17 06:46:20;;;;;;;7.10;6.70;;;6.40;99.90;;;;;;5222503;27;20246;-78
2024/04/17 06:48:46;;;;;;;7.10;6.70;;;6.60;99.90;;;;;;5235753;27;20234;-77
2024/04/17 06:51:17;;;;;;;8.50;8.10;;;6.60;99.90;;;;;;5227653;27;20309;-77
2024/04/17 06:53:43;;;;;;;7.90;7.50;;;6.70;99.90;;;;;;5238823;27;20238;-77
2024/04/17 06:56:12;;;;;;;7.80;7.40;;;6.70;99.90;;;;;;5235027;27;20296;-78
2024/04/17 06:58:38;;;;;;;7.80;7.40;;;6.80;99.90;;;;;;5236431;27;20234;-77
2024/04/17 07:01:06;;;;;;;8.00;7.60;;;6.80;99.90;;;;;;5230884;27;20272;-77
2024/04/17 07:03:32;;;;;;;8.60;8.10;;;6.80;99.90;;;;;;5227510;27;20289;-77
2024/04/17 07:06:04;;;;;;;7.13;6.73;;;6.80;99.90;;;;;;5231511;27;20242;-77
2024/04/17 07:08:32;;;;;;;8.17;7.77;;;6.80;99.90;;;;;;5247278;27;20269;-76
2024/04/17 07:11:04;;;;;;;8.27;7.80;;;6.70;99.90;;;;;;5223302;27;20602;-78
2024/04/17 07:13:30;;;;;;;8.10;7.70;;;6.60;99.90;;;;;;5245405;27;20645;-77
2024/04/17 07:15:59;;;;;;;6.87;6.47;;;6.50;99.90;;;;;;5224024;27;20230;-76
2024/04/17 07:18:25;;;;;;;6.83;6.43;;;6.50;99.90;;;;;;5240894;27;20284;-78
2024/04/17 07:20:53;;;;;;;8.53;8.00;;;6.30;99.90;;;;;;5234238;27;20352;-78
2024/04/17 07:23:19;;;;;;;8.40;7.90;;;6.20;99.90;;;;;;5223338;27;20293;-76
2024/04/17 07:25:50;;;;;;;8.20;7.73;;;6.20;99.90;;;;;;5244736;27;20345;-79
2024/04/17 07:28:16;;;;;;;7.73;7.30;;;6.20;99.90;;;;;;5247325;27;20242;-76
2024/04/17 07:30:44;;;;;;;7.90;7.40;;;6.20;99.90;;;;;;5241446;27;20300;-75
2024/04/17 07:33:10;;;;;;;7.60;7.20;;;6.40;99.90;;;;;;5246523;27;20238;-76
2024/04/17 07:35:42;;;;;;;8.00;7.50;;;6.40;99.90;;;;;;5246108;27;20284;-78
2024/04/17 07:38:09;;;;;;;7.80;7.30;;;6.40;99.90;;;;;;5243323;27;20250;-77
2024/04/17 07:40:38;;;;;;;7.90;7.40;;;6.40;99.90;;;;;;5246957;27;20321;-78
2024/04/17 07:43:06;;;;;;;7.97;7.47;;;6.40;99.90;;;;;;5228175;27;20246;-77
2024/04/17 07:45:35;;;;;;;8.10;7.60;;;6.40;99.90;;;;;;5242283;27;20241;-77
2024/04/17 07:48:01;;;;;;;7.57;7.10;;;6.40;99.90;;;;;;5226286;27;20242;-78
2024/04/17 07:50:29;;;;;;;7.00;6.60;;;6.30;99.90;;;;;;5236340;27;20308;-78
2024/04/17 07:52:55;;;;;;;7.10;6.60;;;6.30;99.90;;;;;;5235870;27;20283;-76
2024/04/17 07:55:23;;;;;;;3.83;3.53;;;6.30;99.90;;;;;;5261708;27;20257;-78
2024/04/17 07:57:49;;;;;;;4.67;4.40;;;6.30;99.90;;;;;;5236618;27;20250;-78
2024/04/17 08:00:20;;;;;;;5.03;4.70;;;6.20;99.90;;;;;;5220376;27;20239;-77
2024/04/17 08:02:46;;;;;;;5.47;5.07;;;6.20;99.90;;;;;;5232022;27;20287;-78
2024/04/17 08:05:15;;;;;;;5.07;4.67;;;6.20;99.90;;;;;;5220875;27;20239;-77
2024/04/17 08:07:41;;;;;;;6.23;5.83;;;6.20;99.90;;;;;;5233821;27;20253;-76
2024/04/17 08:10:10;;;;;;;6.40;6.00;;;6.20;99.90;;;;;;5235972;27;20241;-77
2024/04/17 08:12:36;;;;;;;7.67;7.07;;;6.10;99.90;;;;;;5245477;27;20279;-78
2024/04/17 08:15:05;;;;;;;7.23;6.73;;;6.10;99.90;;;;;;5227572;27;20250;-78
2024/04/17 08:17:33;;;;;;;6.80;6.40;;;6.20;99.90;;;;;;5237197;27;20242;-76
2024/04/17 08:20:02;;;;;;;5.40;4.90;;;6.20;99.90;;;;;;5237497;27;20249;-77
2024/04/17 08:22:27;;;;;;;6.00;5.60;;;6.20;99.90;;;;;;5218707;27;20242;-76
2024/04/17 08:24:56;;;;;;;4.60;4.30;;;6.20;99.90;;;;;;5217494;27;20664;-77
2024/04/17 08:27:25;;;;;;;5.37;5.07;;;6.20;99.90;;;;;;5238659;27;20250;-77
2024/04/17 08:29:50;;;;;;;3.60;3.30;;;6.20;99.90;;;;;;5227284;27;20234;-77
2024/04/17 08:32:19;;;;;;;3.53;2.97;;;6.30;99.90;;;;;;5247011;27;20289;-77
2024/04/17 08:34:47;;;;;;;3.37;3.07;;;6.30;99.90;;;;;;5236364;27;20285;-77
2024/04/17 08:37:17;;;;;;;2.67;2.47;;;6.30;99.90;;;;;;5216520;27;20607;-78
2024/04/17 08:39:43;;;;;;;2.77;2.60;;;6.30;99.90;;;;;;5230397;27;20233;-78
2024/04/17 08:42:20;;;;;;;3.07;2.87;;;6.30;99.90;;;;;;5227524;27;20285;-78
2024/04/17 08:44:46;;;;;;;3.00;2.80;;;6.30;99.90;;;;;;5213009;27;20239;-78
2024/04/17 08:47:16;;;;;;;2.80;2.60;;;6.30;99.90;;;;;;5229526;27;20237;-77
2024/04/17 08:49:44;;;;;;;2.93;2.70;;;6.20;99.90;;;;;;5229573;27;20234;-78
2024/04/17 08:52:15;;;;;;;2.73;2.53;;;6.20;99.90;;;;;;5229981;27;20237;-78
2024/04/17 08:54:43;;;;;;;3.83;3.63;;;6.10;99.90;;;;;;5219220;27;20726;-78
2024/04/17 08:57:13;;;;;;;4.30;3.90;;;6.00;99.90;;;;;;5256230;27;20251;-77
2024/04/17 08:59:39;;;;;;;4.00;3.80;;;6.00;99.90;;;;;;5231188;27;20237;-78
2024/04/17 09:02:15;;;;;;;4.40;4.10;;;5.90;99.90;;;;;;5257676;27;20304;-78
2024/04/17 09:04:42;;;;;;;6.23;5.83;;;5.90;99.90;;;;;;5228375;27;20241;-78
2024/04/17 09:07:11;;;;;;;10.33;9.73;;;5.90;99.90;;;;;;5236253;27;20288;-78
2024/04/17 09:09:41;;;;;;;7.63;7.20;;;5.90;99.90;;;;;;5246093;27;20272;-77
2024/04/17 09:12:14;;;;;;;5.33;5.03;;;5.90;99.90;;;;;;5246293;27;20369;-78
2024/04/17 09:14:39;;;;;;;6.77;6.30;;;6.00;99.90;;;;;;5230831;27;20281;-78
2024/04/17 09:17:10;;;;;;;3.37;3.17;;;6.10;99.90;;;;;;5247598;27;20241;-78
2024/04/17 09:19:36;;;;;;;2.90;2.70;;;6.30;99.90;;;;;;5228811;27;20289;-78
2024/04/17 09:22:04;;;;;;;3.13;2.93;;;6.50;99.90;;;;;;5222641;27;20250;-78
2024/04/17 09:24:40;;;;;;;4.70;4.47;;;6.60;99.90;;;;;;5245047;27;20238;-78
2024/04/17 09:27:15;;;;;;;3.47;3.27;;;6.80;99.90;;;;;;5227291;27;20258;-77
2024/04/17 09:29:41;;;;;;;2.40;2.30;;;7.00;99.90;;;;;;5227239;27;20356;-77
2024/04/17 09:32:15;;;;;;;2.60;2.50;;;7.40;99.90;;;;;;5227357;27;20246;-78
2024/04/17 09:34:40;;;;;;;4.57;4.37;;;7.90;99.90;;;;;;5246676;27;20301;-78
2024/04/17 09:37:11;;;;;;;4.60;4.30;;;8.40;99.90;;;;;;5246593;27;20805;-78
2024/04/17 09:39:40;;;;;;;3.40;3.13;;;8.80;99.90;;;;;;5265418;27;20247;-78
2024/04/17 09:42:10;;;;;;;3.83;3.63;;;9.10;99.90;;;;;;5235288;27;20285;-78
2024/04/17 09:44:38;;;;;;;4.90;4.60;;;9.30;99.90;;;;;;5215496;27;20679;-79
2024/04/17 09:47:11;;;;;;;4.90;4.50;;;9.20;99.90;;;;;;5234196;27;20730;-79
2024/04/17 09:49:38;;;;;;;3.00;2.80;;;9.00;99.90;;;;;;5233460;27;20293;-78
2024/04/17 09:52:07;;;;;;;3.10;2.90;;;8.90;99.90;;;;;;5234000;27;20344;-79
2024/04/17 09:54:35;;;;;;;3.10;2.90;;;8.70;99.90;;;;;;5232105;27;20728;-78
2024/04/17 09:57:08;;;;;;;3.40;3.20;;;8.70;99.90;;;;;;5234209;27;20253;-77
2024/04/17 09:59:35;;;;;;;3.40;3.10;;;8.50;99.90;;;;;;5229738;27;20587;-78
2024/04/17 10:02:04;;;;;;;3.90;3.60;;;8.50;99.90;;;;;;5241532;27;20272;-77
2024/04/17 10:04:31;;;;;;;4.17;3.80;;;8.40;99.90;;;;;;5241884;27;20238;-78
2024/04/17 10:07:00;;;;;;;4.17;3.70;;;8.30;99.90;;;;;;5236826;27;20301;-78
2024/04/17 10:09:29;;;;;;;4.43;4.03;;;8.40;99.90;;;;;;5233842;27;20846;-78
2024/04/17 10:11:59;;;;;;;5.07;3.57;;;8.50;99.90;;;;;;5229257;27;20246;-76
2024/04/17 10:14:29;;;;;;;4.07;3.50;;;8.50;99.90;;;;;;5230628;27;20243;-77
2024/04/17 10:16:58;;;;;;;3.63;3.20;;;8.40;99.90;;;;;;5231213;27;20288;-77
2024/04/17 10:19:24;;;;;;;3.90;3.60;;;8.30;99.90;;;;;;5250979;27;20251;-77
2024/04/17 10:21:56;;;;;;;6.47;6.07;;;8.20;99.90;;;;;;5226687;27;20793;-77
2024/04/17 10:24:22;;;;;;;6.57;6.07;;;8.10;99.90;;;;;;5259274;27;20557;-77
2024/04/17 10:26:54;;;;;;;6.70;6.20;;;8.20;99.90;;;;;;5231666;27;20293;-77
2024/04/17 10:29:23;;;;;;;5.83;5.40;;;8.30;99.90;;;;;;5239392;27;20233;-78
2024/04/17 10:32:05;;;;;;;5.90;5.50;;;8.40;99.90;;;;;;5218651;27;20285;-76
2024/04/17 10:34:42;;;;;;;5.30;4.90;;;8.50;99.90;;;;;;5226501;27;20290;-77
2024/04/17 10:37:11;;;;;;;5.67;5.27;;;8.60;99.90;;;;;;5260163;21;20281;-80
2024/04/17 10:39:38;;;;;;;5.40;5.00;;;8.60;99.90;;;;;;5279773;27;20245;-81
2024/04/17 10:42:07;;;;;;;6.00;5.60;;;8.70;99.90;;;;;;5257868;27;20242;-78
2024/04/17 10:44:35;;;;;;;5.80;5.40;;;8.80;99.90;;;;;;5275421;27;20240;-81
2024/04/17 10:47:07;;;;;;;6.90;6.50;;;8.80;99.90;;;;;;5274620;27;20248;-81
2024/04/17 10:49:38;;;;;;;7.00;6.60;;;8.70;99.90;;;;;;5277408;27;20289;-81
2024/04/17 10:52:07;;;;;;;6.80;6.30;;;8.70;99.90;;;;;;5258364;27;20251;-82
2024/04/17 10:54:34;;;;;;;7.93;7.33;;;8.60;99.90;;;;;;5254078;27;20288;-81
2024/04/17 10:57:04;;;;;;;7.00;6.43;;;8.50;99.90;;;;;;5293859;27;20671;-81
2024/04/17 10:59:30;;;;;;;7.40;6.70;;;8.40;99.90;;;;;;5277298;27;20833;-82
2024/04/17 11:01:58;;;;;;;6.37;5.87;;;8.50;99.90;;;;;;5276286;27;20256;-82
2024/04/17 11:04:27;;;;;;;6.83;6.20;;;8.60;99.90;;;;;;5277932;27;20296;-80
2024/04/17 11:06:55;;;;;;;6.97;6.37;;;8.70;99.90;;;;;;5276015;27;20260;-82
2024/04/17 11:09:21;;;;;;;6.37;5.80;;;8.80;99.90;;;;;;5280550;27;20274;-82
2024/04/17 11:11:52;;;;;;;7.43;6.67;;;9.00;99.90;;;;;;5269858;27;20242;-83
2024/04/17 11:14:18;;;;;;;8.37;7.50;;;9.00;99.90;;;;;;5278968;27;20280;-83
2024/04/17 11:16:46;;;;;;;8.40;7.70;;;9.00;99.90;;;;;;5276217;27;20662;-82
2024/04/17 11:19:13;;;;;;;9.20;8.57;;;9.20;99.90;;;;;;5271964;27;20264;-82
2024/04/17 11:21:46;;;;;;;9.40;8.50;;;9.50;99.90;;;;;;5279593;27;20301;-82
2024/04/17 11:24:17;;;;;;;9.63;8.93;;;9.80;99.90;;;;;;5286369;27;20817;-82
2024/04/17 11:26:45;;;;;;;8.63;7.80;;;10.10;99.90;;;;;;5278954;27;20278;-82
2024/04/17 11:29:14;;;;;;;8.97;8.37;;;10.40;99.90;;;;;;5272722;27;20304;-82
2024/04/17 11:31:43;;;;;;;8.40;7.80;;;10.60;99.90;;;;;;5291412;27;20603;-82
2024/04/17 11:34:18;;;;;;;7.93;7.23;;;10.70;99.90;;;;;;5278797;27;20242;-82
2024/04/17 11:36:49;;;;;;;6.23;5.73;;;10.70;99.90;;;;;;5270897;27;20293;-82
2024/04/17 11:39:16;;;;;;;4.10;3.73;;;10.70;99.90;;;;;;5260912;27;20264;-82
2024/04/17 11:41:44;;;;;;;6.50;4.67;;;10.60;99.90;;;;;;5267414;27;20591;-81
2024/04/17 11:44:10;;;;;;;6.33;4.87;;;10.40;99.90;;;;;;5272083;27;20237;-84
2024/04/17 11:46:39;;;;;;;5.83;5.17;;;10.20;99.90;;;;;;5265721;27;20768;-84
2024/04/17 11:49:08;;;;;;;6.30;5.70;;;10.00;99.90;;;;;;5274728;27;20254;-82
2024/04/17 11:51:36;;;;;;;8.40;7.80;;;9.70;99.90;;;;;;5271722;27;20242;-83
2024/04/17 11:54:05;;;;;;;9.60;8.80;;;9.40;99.90;;;;;;5261669;27;20250;-82
2024/04/17 11:56:33;;;;;;;9.13;8.30;;;9.20;99.90;;;;;;5262824;27;20302;-83
2024/04/17 11:58:59;;;;;;;10.57;9.70;;;9.10;99.90;;;;;;5262331;27;20242;-82
2024/04/17 12:01:27;;;;;;;10.37;9.47;;;8.90;99.90;;;;;;5289103;27;20249;-83
2024/04/17 12:03:53;;;;;;;7.90;7.20;;;8.90;99.90;;;;;;5251609;27;20293;-80
2024/04/17 12:06:22;;;;;;;9.70;8.80;;;8.90;99.90;;;;;;5264825;27;20313;-82
2024/04/17 12:08:48;;;;;;;9.40;8.70;;;9.20;99.90;;;;;;5264051;27;21028;-82
2024/04/17 12:11:19;;;;;;;9.73;9.03;;;9.50;99.90;;;;;;5263588;27;20292;-82
2024/04/17 12:13:45;;;;;;;9.77;8.93;;;10.00;99.90;;;;;;5263078;27;20240;-83
2024/04/17 12:16:13;;;;;;;9.47;8.70;;;10.60;99.90;;;;;;5262776;27;20741;-83
2024/04/17 12:18:39;;;;;;;6.97;6.37;;;10.90;99.90;;;;;;5276650;27;20243;-80
2024/04/17 12:21:07;;;;;;;7.30;6.70;;;11.30;99.90;;;;;;5264476;27;20244;-80
2024/04/17 12:23:33;;;;;;;7.80;7.20;;;11.60;99.90;;;;;;5275643;27;20240;-81
2024/04/17 12:28:48;;;;;;;7.40;6.67;;;12.10;99.90;;;;;;5277530;27;20350;-81
2024/04/17 12:31:18;;;;;;;5.70;5.30;;;12.30;99.90;;;;;;5273070;27;20352;-81
2024/04/17 12:33:48;;;;;;;7.70;7.13;;;12.60;99.90;;;;;;5266098;27;20582;-81
2024/04/17 12:36:16;;;;;;;7.40;6.90;;;12.80;99.90;;;;;;5269707;27;20724;-82
2024/04/17 12:38:44;;;;;;;7.50;6.80;;;12.50;99.90;;;;;;5263380;27;20249;-81
2024/04/17 12:41:13;;;;;;;7.70;7.10;;;12.30;99.90;;;;;;5278672;27;20238;-82
2024/04/17 12:43:41;;;;;;;7.70;7.10;;;12.20;99.90;;;;;;5266494;27;20301;-81
2024/04/17 12:46:12;;;;;;;7.50;6.97;;;11.90;99.90;;;;;;5274030;27;20384;-78
2024/04/17 12:48:41;;;;;;;7.23;6.73;;;11.60;99.90;;;;;;5251496;27;20258;-81
2024/04/17 12:51:09;;;;;;;8.33;7.63;;;11.20;99.90;;;;;;5273081;27;20240;-80
2024/04/17 12:53:38;;;;;;;7.47;6.97;;;11.00;99.90;;;;;;5269863;27;20283;-81
2024/04/17 12:56:07;;;;;;;9.77;9.07;;;10.80;99.90;;;;;;5278530;27;20338;-81
2024/04/17 12:58:36;;;;;;;5.00;4.23;;;10.70;99.90;;;;;;5276969;27;21021;-79
2024/04/17 13:01:03;;;;;;;8.70;7.77;;;10.70;99.90;;;;;;5263592;27;20280;-79
2024/04/17 13:03:35;;;;;;;4.07;3.70;;;10.60;99.90;;;;;;5266844;27;20234;-80
2024/04/17 13:06:01;;;;;;;6.33;6.03;;;10.00;99.90;;;;;;5277872;27;20342;-78
2024/04/17 13:08:29;;;;;;;4.87;4.57;;;9.30;99.90;;;;;;5268310;27;20635;-79